Time;durP1;ratioP1;P1;durP2;ratioP2;P2;SDS_P1;SDS_P2;PMS_P1;PMS_P2;Temp;Humidity;BMP_temperature;BMP_pressure;BME280_temperature;BME280_humidity;BME280_pressure;Samples;Min_cycle;Max_cycle;Signal;HPM_P1;HPM_P2
2023/05/19 00:01:12;;;;;;;3.47;2.80;;;;;;;9.17;63.44;102565.88;5075349;28;20024;-85
2023/05/19 00:03:47;;;;;;;3.28;2.85;;;;;;;9.15;63.08;102568.44;5074587;28;20111;-85
2023/05/19 00:06:13;;;;;;;4.22;3.10;;;;;;;9.11;63.94;102572.69;5074605;28;20025;-85
2023/05/19 00:08:41;;;;;;;3.83;3.23;;;;;;;9.09;63.43;102563.13;5074844;28;20032;-84
2023/05/19 00:11:07;;;;;;;4.72;3.20;;;;;;;9.05;63.45;102567.38;5074120;28;20029;-84
2023/05/19 00:13:32;;;;;;;5.13;3.10;;;;;;;9.04;63.32;102557.00;5075261;28;20050;-85
2023/05/19 00:15:58;;;;;;;4.87;3.30;;;;;;;8.99;64.09;102558.63;5074957;28;20073;-84
2023/05/19 00:18:23;;;;;;;3.67;3.00;;;;;;;8.98;63.45;102562.94;5074466;28;20025;-84
2023/05/19 00:20:50;;;;;;;3.67;2.87;;;;;;;8.92;65.31;102549.88;5075388;28;20025;-85
2023/05/19 00:23:15;;;;;;;3.60;2.80;;;;;;;8.91;65.11;102554.19;5074234;28;20043;-84
2023/05/19 00:25:40;;;;;;;3.00;2.70;;;;;;;8.88;64.47;102558.44;5074506;28;20020;-85
2023/05/19 00:28:05;;;;;;;3.57;2.80;;;;;;;8.88;64.24;102553.25;5074964;28;20473;-84
2023/05/19 00:30:31;;;;;;;4.37;3.30;;;;;;;8.84;67.04;102546.25;5074528;28;20469;-85
2023/05/19 00:32:56;;;;;;;3.87;2.90;;;;;;;8.76;65.34;102536.63;5075077;28;20035;-85
2023/05/19 00:35:22;;;;;;;3.17;2.77;;;;;;;8.77;65.00;102543.56;5066664;28;20504;-85
2023/05/19 00:37:48;;;;;;;5.45;3.13;;;;;;;8.73;65.88;102543.44;5074246;28;20031;-84
2023/05/19 00:40:13;;;;;;;5.37;3.37;;;;;;;8.71;65.46;102532.22;5074354;28;20034;-84
2023/05/19 00:42:40;;;;;;;3.63;2.93;;;;;;;8.70;66.04;102533.91;5073939;28;20029;-84
2023/05/19 00:45:05;;;;;;;4.80;3.15;;;;;;;8.67;65.52;102533.84;5073792;28;20040;-84
2023/05/19 00:47:31;;;;;;;5.90;3.80;;;;;;;8.58;67.91;102534.56;5074512;28;20020;-85
2023/05/19 00:49:56;;;;;;;4.77;3.57;;;;;;;8.58;67.36;102533.66;5074790;28;20024;-85
2023/05/19 00:52:22;;;;;;;4.83;3.33;;;;;;;8.56;67.22;102530.16;5073116;28;20039;-84
2023/05/19 00:54:47;;;;;;;5.07;3.30;;;;;;;8.52;70.48;102533.56;5074628;28;20160;-85
2023/05/19 00:57:13;;;;;;;7.70;3.47;;;;;;;8.42;70.22;102528.16;5074021;28;20028;-84
2023/05/19 00:59:39;;;;;;;4.75;3.22;;;;;;;8.41;71.63;102530.69;5073814;28;20017;-85
2023/05/19 01:02:04;;;;;;;10.27;5.00;;;;;;;8.35;74.26;102536.63;5073894;28;20077;-85
2023/05/19 01:04:33;;;;;;;8.60;4.40;;;;;;;8.33;76.19;102539.19;5074023;28;20067;-85
2023/05/19 01:06:59;;;;;;;9.50;4.30;;;;;;;8.29;73.91;102546.84;5073469;28;20025;-84
2023/05/19 01:09:25;;;;;;;6.83;3.97;;;;;;;8.25;76.19;102545.91;5074183;28;20043;-85
2023/05/19 01:11:50;;;;;;;6.10;3.67;;;;;;;8.25;74.59;102539.84;5074370;28;20027;-84
2023/05/19 01:14:16;;;;;;;5.17;3.30;;;;;;;8.24;73.34;102543.28;5073226;28;20054;-84
2023/05/19 01:16:57;;;;;;;5.97;3.58;;;;;;;8.23;71.87;102538.94;5073941;28;20066;-85
2023/05/19 01:19:45;;;;;;;4.68;3.35;;;;;;;8.24;75.59;102535.50;5073671;28;20035;-84
2023/05/19 01:22:22;;;;;;;3.85;3.17;;;;;;;8.20;74.18;102542.34;5073938;28;20032;-84
2023/05/19 01:25:09;;;;;;;4.22;3.00;;;;;;;8.05;73.26;102517.03;5073603;28;20064;-85
2023/05/19 01:28:04;;;;;;;4.55;3.30;;;;;;;8.16;75.68;102538.81;5073112;28;20037;-85
2023/05/19 01:30:43;;;;;;;6.90;3.80;;;;;;;8.12;76.14;102542.16;5073578;28;20116;-84
2023/05/19 01:33:14;;;;;;;7.90;4.20;;;;;;;8.06;76.49;102529.13;5073404;28;20116;-84
2023/05/19 01:35:42;;;;;;;6.63;4.00;;;;;;;8.05;79.22;102537.72;5072867;28;20131;-85
2023/05/19 01:38:09;;;;;;;7.38;3.50;;;;;;;8.03;75.56;102537.69;5072831;28;20025;-84
2023/05/19 01:40:37;;;;;;;10.50;4.75;;;;;;;7.98;78.62;102536.69;5072941;28;20020;-85
2023/05/19 01:43:03;;;;;;;6.07;3.72;;;;;;;7.97;75.98;102540.13;5072927;28;20024;-84
2023/05/19 01:45:30;;;;;;;5.32;3.30;;;;;;;7.97;77.26;102532.34;5073066;28;20082;-84
2023/05/19 01:47:59;;;;;;;6.65;3.67;;;;;;;7.93;79.68;102532.25;5072360;28;20032;-85
2023/05/19 01:50:26;;;;;;;7.05;3.65;;;;;;;7.88;77.51;102529.56;5073666;28;20071;-84
2023/05/19 01:52:51;;;;;;;6.13;3.28;;;;;;;7.86;77.15;102531.25;5073295;28;20056;-84
2023/05/19 01:55:17;;;;;;;4.90;3.27;;;;;;;7.88;76.15;102522.66;5072385;28;20056;-84
2023/05/19 01:57:52;;;;;;;3.97;2.78;;;;;;;7.86;79.84;102516.63;5071199;28;20034;-85
2023/05/19 02:00:26;;;;;;;7.68;3.90;;;;;;;7.82;77.52;102524.28;5072340;28;20028;-84
2023/05/19 02:03:07;;;;;;;6.85;3.75;;;;;;;7.80;77.66;102523.34;5072157;28;20037;-84
2023/05/19 02:05:54;;;;;;;4.28;3.08;;;;;;;7.80;77.17;102525.94;5073105;28;20564;-85
2023/05/19 02:08:37;;;;;;;8.80;4.60;;;;;;;7.73;79.09;102522.34;5073012;28;20032;-84
2023/05/19 02:11:12;;;;;;;9.70;4.22;;;;;;;7.73;79.92;102527.50;5072285;28;20029;-85
2023/05/19 02:13:42;;;;;;;9.88;4.50;;;;;;;7.69;79.71;102521.41;5072749;28;20385;-85
2023/05/19 02:16:10;;;;;;;6.22;4.20;;;;;;;7.71;79.87;102524.84;5072262;28;20098;-84
2023/05/19 02:18:36;;;;;;;7.30;4.28;;;;;;;7.69;79.25;102518.81;5073216;28;20078;-84
2023/05/19 02:21:01;;;;;;;5.50;3.50;;;;;;;7.68;78.01;102513.59;5072668;28;20029;-84
2023/05/19 02:23:27;;;;;;;6.77;4.00;;;;;;;7.65;78.68;102513.53;5072157;28;20029;-85
2023/05/19 02:25:52;;;;;;;6.63;3.70;;;;;;;7.65;80.07;102513.53;5072713;28;20025;-85
2023/05/19 02:28:18;;;;;;;4.67;3.40;;;;;;;7.60;79.76;102509.94;5072278;28;20064;-84
2023/05/19 02:30:43;;;;;;;6.03;3.40;;;;;;;7.58;81.40;102510.78;5072028;28;20101;-85
2023/05/19 02:33:10;;;;;;;7.63;3.97;;;;;;;7.56;82.06;102506.44;5072467;28;20457;-85
2023/05/19 02:35:35;;;;;;;7.80;3.70;;;;;;;7.57;79.37;102505.59;5072777;28;20381;-85
2023/05/19 02:38:01;;;;;;;3.93;3.10;;;;;;;7.56;79.53;102507.28;5071456;28;20027;-84
2023/05/19 02:40:26;;;;;;;5.60;3.30;;;;;;;7.50;77.88;102496.81;5072992;28;20021;-84
2023/05/19 02:42:51;;;;;;;5.90;3.23;;;;;;;7.55;79.07;102500.38;5072901;28;20447;-85
2023/05/19 02:45:17;;;;;;;4.43;3.30;;;;;;;7.51;79.45;102495.97;5071380;28;20443;-85
2023/05/19 02:47:42;;;;;;;4.67;3.07;;;;;;;7.54;80.22;102508.09;5072942;28;20070;-85
2023/05/19 02:50:08;;;;;;;4.07;2.90;;;;;;;7.52;79.18;102509.75;5072555;28;20100;-85
2023/05/19 02:52:33;;;;;;;4.10;2.80;;;;;;;7.52;77.53;102509.75;5071399;28;20414;-85
2023/05/19 02:54:59;;;;;;;2.80;2.50;;;;;;;7.52;78.65;102499.44;5072176;28;20380;-84
2023/05/19 02:57:25;;;;;;;3.38;2.60;;;;;;;7.49;78.34;102500.22;5072302;28;20145;-85
2023/05/19 02:59:50;;;;;;;3.15;2.35;;;;;;;7.48;78.49;102493.31;5072003;28;20027;-85
2023/05/19 03:02:16;;;;;;;5.10;2.97;;;;;;;7.47;79.97;102498.47;5071939;28;20384;-85
2023/05/19 03:04:41;;;;;;;3.97;2.90;;;;;;;7.47;77.26;102490.72;5072522;28;20029;-85
2023/05/19 03:07:12;;;;;;;3.00;2.67;;;;;;;7.48;77.09;102488.16;5074840;28;20036;-85
2023/05/19 03:09:37;;;;;;;6.22;3.28;;;;;;;7.45;79.68;102484.63;5076661;28;20364;-85
2023/05/19 03:12:03;;;;;;;5.53;3.10;;;;;;;7.42;77.46;102494.03;5075679;28;20033;-84
2023/05/19 03:14:29;;;;;;;3.53;2.70;;;;;;;7.44;77.07;102501.81;5076673;28;20020;-85
2023/05/19 03:16:54;;;;;;;2.88;2.45;;;;;;;7.44;77.32;102494.06;5076076;28;20028;-85
2023/05/19 03:19:20;;;;;;;2.58;2.30;;;;;;;7.45;76.60;102502.72;5075592;28;20025;-84
2023/05/19 03:21:48;;;;;;;3.57;2.57;;;;;;;7.44;76.88;102498.38;5076037;28;20047;-84
2023/05/19 03:24:13;;;;;;;2.67;2.33;;;;;;;7.45;76.46;102492.38;5075932;28;20430;-84
2023/05/19 03:26:39;;;;;;;3.80;2.30;;;;;;;7.40;76.83;102489.69;5075282;28;20067;-85
2023/05/19 03:29:04;;;;;;;4.57;2.55;;;;;;;7.40;78.86;102502.59;5076126;28;20021;-84
2023/05/19 03:31:29;;;;;;;3.05;2.72;;;;;;;7.37;77.69;102502.50;5076107;28;20028;-85
2023/05/19 03:33:56;;;;;;;3.05;2.60;;;;;;;7.38;77.23;102505.13;5075336;28;20017;-85
2023/05/19 03:36:22;;;;;;;2.85;2.42;;;;;;;7.38;76.52;102509.44;5075757;28;20488;-85
2023/05/19 03:38:48;;;;;;;2.75;2.40;;;;;;;7.37;76.71;102510.25;5075786;28;20112;-85
2023/05/19 03:41:13;;;;;;;2.75;2.25;;;;;;;7.37;76.47;102507.69;5074554;28;20115;-84
2023/05/19 03:43:39;;;;;;;2.38;2.10;;;;;;;7.39;76.42;102513.75;5075774;28;20131;-84
2023/05/19 03:46:05;;;;;;;2.97;2.40;;;;;;;7.38;76.38;102512.88;5075535;28;20536;-84
2023/05/19 03:48:30;;;;;;;3.33;2.37;;;;;;;7.38;77.01;102509.44;5075094;28;20036;-85
2023/05/19 03:50:55;;;;;;;4.40;2.55;;;;;;;7.40;76.56;102516.38;5075033;28;20032;-84
2023/05/19 03:53:20;;;;;;;3.87;2.43;;;;;;;7.41;76.08;102517.28;5075361;28;20028;-84
2023/05/19 03:55:47;;;;;;;3.23;2.30;;;;;;;7.41;76.39;102517.28;5074893;28;20085;-85
2023/05/19 03:58:13;;;;;;;3.72;2.50;;;;;;;7.39;76.09;102519.78;5075338;28;20099;-85
2023/05/19 04:00:39;;;;;;;2.43;2.23;;;;;;;7.41;76.14;102517.28;5075466;28;20074;-84
2023/05/19 04:03:04;;;;;;;3.40;2.47;;;;;;;7.40;76.06;102518.97;5074614;28;20036;-85
2023/05/19 04:05:30;;;;;;;2.93;2.47;;;;;;;7.39;76.67;102516.34;5075309;28;20538;-85
2023/05/19 04:07:55;;;;;;;4.00;2.50;;;;;;;7.36;76.43;102524.00;5075669;28;20029;-84
2023/05/19 04:10:20;;;;;;;4.43;2.60;;;;;;;7.35;78.33;102517.09;5073916;28;20104;-85
2023/05/19 04:12:46;;;;;;;3.15;2.30;;;;;;;7.30;77.17;102508.38;5075095;28;20028;-85
2023/05/19 04:15:14;;;;;;;3.63;2.40;;;;;;;7.33;79.35;102516.19;5074743;28;20392;-84
2023/05/19 04:17:39;;;;;;;4.10;2.50;;;;;;;7.29;78.98;102506.63;5074172;28;20111;-85
2023/05/19 04:20:05;;;;;;;9.63;4.23;;;;;;;7.24;85.54;102517.69;5074927;28;20048;-84
2023/05/19 04:22:31;;;;;;;14.23;5.60;;;;;;;7.14;86.64;102510.56;5074622;28;20020;-85
2023/05/19 04:24:57;;;;;;;16.75;6.63;;;;;;;7.09;88.21;102512.16;5074750;28;20016;-85
2023/05/19 04:27:22;;;;;;;16.43;7.17;;;;;;;7.06;88.89;102507.78;5074606;28;20115;-85
2023/05/19 04:29:48;;;;;;;16.77;7.63;;;;;;;7.02;90.06;102510.22;5074391;28;20031;-85
2023/05/19 04:32:16;;;;;;;16.30;7.00;;;;;;;7.02;89.26;102512.81;5074517;28;20107;-85
2023/05/19 04:34:44;;;;;;;16.13;7.53;;;;;;;6.99;90.51;102512.72;5075148;28;20432;-85
2023/05/19 04:37:14;;;;;;;17.08;8.88;;;;;;;6.86;92.28;102509.84;5073463;28;20457;-85
2023/05/19 04:39:42;;;;;;;19.40;8.88;;;;;;;6.87;92.36;102514.16;5074971;28;20029;-85
2023/05/19 04:42:09;;;;;;;18.00;8.25;;;;;;;6.90;92.17;102513.38;5074578;28;20116;-85
2023/05/19 04:44:35;;;;;;;18.88;8.40;;;;;;;6.87;92.97;102506.41;5060421;28;20052;-84
2023/05/19 04:47:05;;;;;;;17.90;8.10;;;;;;;6.90;92.81;102508.22;5053199;28;20033;-85
2023/05/19 04:49:31;;;;;;;17.00;8.10;;;;;;;6.92;91.73;102510.00;5053587;28;20036;-85
2023/05/19 04:51:56;;;;;;;16.50;8.15;;;;;;;6.95;93.24;102520.41;5052923;28;20044;-85
2023/05/19 04:54:21;;;;;;;18.02;8.07;;;;;;;6.97;92.98;102515.28;5053155;28;20573;-84
2023/05/19 04:56:47;;;;;;;17.90;8.23;;;;;;;6.93;92.75;102509.16;5053366;28;20040;-84
2023/05/19 04:59:12;;;;;;;20.33;9.40;;;;;;;7.00;92.95;102515.38;5052488;28;20354;-84
2023/05/19 05:01:39;;;;;;;20.38;10.13;;;;;;;7.02;92.98;102516.28;5053449;28;20032;-85
2023/05/19 05:04:05;;;;;;;18.63;9.02;;;;;;;7.07;93.27;102511.25;5052592;28;20017;-85
2023/05/19 05:06:30;;;;;;;20.07;8.70;;;;;;;7.08;93.06;102508.69;5049814;28;20106;-85
2023/05/19 05:08:56;;;;;;;17.40;8.20;;;;;;;7.18;92.06;102520.13;5053411;28;20025;-85
2023/05/19 05:11:22;;;;;;;17.87;7.53;;;;;;;7.23;92.33;102513.38;5052801;28;20052;-85
2023/05/19 05:13:47;;;;;;;15.50;7.33;;;;;;;7.32;91.31;102520.47;5052587;28;20111;-85
2023/05/19 05:16:13;;;;;;;20.03;8.93;;;;;;;7.36;91.87;102519.75;5052706;28;20047;-84
2023/05/19 05:18:39;;;;;;;17.83;9.40;;;;;;;7.41;91.55;102514.69;5052251;28;20079;-85
2023/05/19 05:21:05;;;;;;;19.33;9.40;;;;;;;7.49;91.21;102525.19;5053001;28;20029;-86
2023/05/19 05:23:31;;;;;;;19.92;9.45;;;;;;;7.51;91.09;102527.00;5052910;28;20473;-85
2023/05/19 05:25:56;;;;;;;16.85;8.60;;;;;;;7.58;90.83;102526.28;5052332;28;20075;-86
2023/05/19 05:28:22;;;;;;;17.25;8.27;;;;;;;7.69;89.42;102526.56;5052165;28;20029;-85
2023/05/19 05:30:47;;;;;;;16.15;7.90;;;;;;;7.79;89.77;102526.78;5052589;28;20036;-85
2023/05/19 05:33:13;;;;;;;18.10;9.05;;;;;;;7.84;89.18;102532.91;5047706;28;20043;-86
2023/05/19 05:35:38;;;;;;;19.43;9.80;;;;;;;7.85;88.66;102538.13;5053153;28;20036;-85
2023/05/19 05:38:04;;;;;;;20.77;9.00;;;;;;;7.85;88.73;102532.97;5052180;28;20051;-85
2023/05/19 05:40:29;;;;;;;19.50;9.27;;;;;;;7.93;88.63;102525.38;5051955;28;20071;-85
2023/05/19 05:42:55;;;;;;;17.23;8.10;;;;;;;8.05;87.93;102532.53;5052654;28;20032;-87
2023/05/19 05:45:24;;;;;;;18.92;9.10;;;;;;;8.17;87.39;102532.81;5023542;28;1220840;-85
2023/05/19 05:47:50;;;;;;;17.20;9.07;;;;;;;8.21;87.13;102518.22;5073226;28;20033;-85
2023/05/19 05:50:17;;;;;;;19.50;9.10;;;;;;;8.33;86.45;102531.41;5073474;28;20090;-85
2023/05/19 05:52:46;;;;;;;16.40;7.82;;;;;;;8.42;86.54;102520.41;5073253;28;20427;-88
2023/05/19 05:55:12;;;;;;;16.95;7.97;;;;;;;8.49;86.46;102513.69;5072628;28;20029;-84
2023/05/19 05:57:37;;;;;;;17.80;8.70;;;;;;;8.56;85.10;102519.81;5073343;28;20024;-86
2023/05/19 06:00:08;;;;;;;18.50;8.47;;;;;;;8.67;85.13;102525.22;5072690;28;20073;-84
2023/05/19 06:02:35;;;;;;;15.40;7.45;;;;;;;8.75;85.23;102521.06;5072758;28;20032;-85
2023/05/19 06:05:01;;;;;;;20.75;9.25;;;;;;;8.68;83.86;102512.28;5073233;28;20368;-84
2023/05/19 06:07:26;;;;;;;20.20;8.83;;;;;;;8.83;84.06;102523.81;5073285;28;20016;-85
2023/05/19 06:09:51;;;;;;;17.10;8.27;;;;;;;8.94;84.02;102527.47;5072279;28;20050;-85
2023/05/19 06:12:17;;;;;;;18.63;8.13;;;;;;;9.09;83.19;102537.22;5072625;28;20035;-85
2023/05/19 06:14:42;;;;;;;18.50;8.93;;;;;;;9.14;82.32;102534.72;5072186;28;20526;-77
2023/05/19 06:17:07;;;;;;;15.13;7.67;;;;;;;9.23;82.84;102530.56;5071955;28;20024;-77
2023/05/19 06:19:33;;;;;;;11.90;6.23;;;;;;;9.45;83.21;102535.28;5073298;28;20051;-78
2023/05/19 06:21:58;;;;;;;16.70;7.43;;;;;;;9.70;80.71;102539.13;5071981;28;20107;-78
2023/05/19 06:24:25;;;;;;;17.80;8.40;;;;;;;9.73;79.84;102541.78;5072143;28;20032;-79
2023/05/19 06:26:51;;;;;;;17.95;8.43;;;;;;;9.74;79.04;102534.00;5072765;28;20400;-80
2023/05/19 06:29:16;;;;;;;17.07;8.20;;;;;;;9.95;78.60;102535.16;5071281;28;20036;-79
2023/05/19 06:31:41;;;;;;;17.20;7.90;;;;;;;10.14;78.42;102536.31;5072992;28;20029;-84
2023/05/19 06:34:09;;;;;;;17.90;8.10;;;;;;;10.44;77.32;102534.13;5072010;28;20478;-85
2023/05/19 06:36:34;;;;;;;13.57;6.90;;;;;;;11.23;75.95;102533.25;5071890;28;20472;-85
2023/05/19 06:38:59;;;;;;;15.33;6.83;;;;;;;12.13;75.44;102544.31;5072633;28;20112;-85
2023/05/19 06:41:25;;;;;;;17.13;7.40;;;;;;;12.96;68.01;102542.88;5071940;28;20040;-86
2023/05/19 06:43:50;;;;;;;15.00;6.90;;;;;;;13.32;66.74;102540.31;5071371;28;20032;-84
2023/05/19 06:46:16;;;;;;;14.03;6.73;;;;;;;13.62;67.24;102544.72;5072623;28;20131;-89
2023/05/19 06:48:41;;;;;;;14.82;7.53;;;;;;;14.00;64.30;102535.94;5072645;28;20020;-88
2023/05/19 06:51:09;;;;;;;13.00;6.40;;;;;;;13.95;66.29;102536.81;5071660;28;20070;-88
2023/05/19 06:53:34;;;;;;;10.73;5.35;;;;;;;14.23;63.51;102535.00;5072797;28;20416;-88
2023/05/19 06:55:59;;;;;;;15.20;6.90;;;;;;;14.03;61.76;102538.53;5072923;28;20032;-89
2023/05/19 06:58:27;;;;;;;13.80;6.93;;;;;;;13.75;61.50;102540.34;5072447;28;20069;-91
2023/05/19 07:00:53;;;;;;;11.77;5.55;;;;;;;13.56;63.56;102529.94;5073561;28;20032;-88
2023/05/19 07:03:18;;;;;;;14.30;6.63;;;;;;;13.44;63.51;102530.78;5072827;28;20032;-88
2023/05/19 07:05:43;;;;;;;14.77;6.80;;;;;;;13.10;63.99;102530.75;5071873;28;20042;-87
2023/05/19 07:08:09;;;;;;;14.50;7.20;;;;;;;12.80;65.63;102535.03;5072065;28;20032;-87
2023/05/19 07:10:34;;;;;;;10.90;5.60;;;;;;;12.89;66.26;102534.16;5072384;28;20090;-88
2023/05/19 07:12:59;;;;;;;12.93;6.33;;;;;;;12.89;66.09;102536.78;5070949;28;20048;-87
2023/05/19 07:15:25;;;;;;;10.87;5.50;;;;;;;13.00;67.32;102533.34;5072349;28;20025;-88
2023/05/19 07:17:50;;;;;;;12.27;6.40;;;;;;;13.17;65.11;102533.38;5072647;28;20032;-88
2023/05/19 07:20:15;;;;;;;12.93;5.93;;;;;;;13.06;65.38;102530.75;5071767;28;20020;-88
2023/05/19 07:22:41;;;;;;;14.23;6.80;;;;;;;13.06;65.22;102531.59;5072659;28;20120;-88
2023/05/19 07:25:07;;;;;;;15.23;6.47;;;;;;;12.92;64.57;102535.94;5071699;28;20020;-88
2023/05/19 07:27:32;;;;;;;14.10;6.18;;;;;;;12.92;65.01;102538.53;5072142;28;20025;-88
2023/05/19 07:29:58;;;;;;;10.77;5.10;;;;;;;13.13;66.24;102535.06;5072490;28;20046;-88
2023/05/19 07:32:23;;;;;;;11.93;5.37;;;;;;;13.36;64.12;102532.50;5072254;28;20044;-88
2023/05/19 07:34:48;;;;;;;11.87;5.10;;;;;;;13.52;64.36;102540.34;5073058;28;20055;-88
2023/05/19 07:37:15;;;;;;;10.93;5.53;;;;;;;13.66;63.22;102540.34;5072389;28;20024;-88
2023/05/19 07:39:40;;;;;;;9.75;4.57;;;;;;;13.76;64.27;102531.63;5072194;28;20025;-91
2023/05/19 07:42:05;;;;;;;12.50;6.47;;;;;;;13.73;61.88;102540.34;5072674;28;20035;-87
2023/05/19 07:44:30;;;;;;;14.13;6.13;;;;;;;13.61;59.24;102536.88;5064908;28;20489;-91
2023/05/19 07:46:56;;;;;;;16.83;5.70;;;;;;;13.52;60.16;102535.13;5051706;28;20025;-89
2023/05/19 07:49:22;;;;;;;11.87;5.03;;;;;;;13.54;61.14;102534.28;5052257;28;20032;-90
2023/05/19 07:51:47;;;;;;;14.43;5.43;;;;;;;13.54;60.17;102536.00;5053870;28;20462;-88
2023/05/19 07:54:12;;;;;;;8.83;4.87;;;;;;;13.66;60.26;102528.16;5054805;28;20389;-88
2023/05/19 07:56:38;;;;;;;13.87;5.33;;;;;;;13.73;60.83;102526.41;5055912;28;20021;-88
2023/05/19 07:59:03;;;;;;;8.13;4.60;;;;;;;13.92;61.72;102524.66;5055551;28;20033;-88
2023/05/19 08:01:29;;;;;;;9.90;4.97;;;;;;;14.14;59.43;102517.59;5055304;28;20027;-88
2023/05/19 08:03:55;;;;;;;12.38;5.20;;;;;;;14.18;59.13;102518.47;5055392;28;20466;-88
2023/05/19 08:06:21;;;;;;;9.07;4.20;;;;;;;14.27;60.32;102528.88;5055582;28;20021;-87
2023/05/19 08:08:46;;;;;;;12.52;4.72;;;;;;;14.34;57.26;102520.16;5055360;28;20029;-88
2023/05/19 08:11:11;;;;;;;11.90;5.17;;;;;;;14.28;59.02;102509.75;5055380;28;20035;-88
2023/05/19 08:13:37;;;;;;;8.93;4.40;;;;;;;14.40;59.35;102513.16;5054975;28;20501;-89
2023/05/19 08:16:02;;;;;;;11.50;5.10;;;;;;;14.32;58.17;102515.81;5054120;28;20041;-87
2023/05/19 08:18:28;;;;;;;10.40;5.20;;;;;;;14.34;58.50;102509.69;5055464;28;20025;-88
2023/05/19 08:20:53;;;;;;;8.50;4.50;;;;;;;14.41;58.65;102509.69;5053315;28;20064;-88
2023/05/19 08:23:18;;;;;;;13.27;5.77;;;;;;;14.30;57.22;102514.94;5052102;28;20448;-88
2023/05/19 08:25:44;;;;;;;11.43;5.07;;;;;;;14.40;57.67;102505.34;5055521;28;20473;-87
2023/05/19 08:28:10;;;;;;;10.57;5.20;;;;;;;14.52;56.43;102510.50;5054910;28;20028;-88
2023/05/19 08:30:35;;;;;;;10.40;4.57;;;;;;;14.57;55.88;102500.03;5054703;28;20462;-88
2023/05/19 08:33:01;;;;;;;9.37;4.40;;;;;;;14.79;56.85;102506.00;5055126;28;20083;-88
2023/05/19 08:35:26;;;;;;;12.37;5.00;;;;;;;14.89;56.59;102501.59;5054534;28;20091;-84
2023/05/19 08:37:52;;;;;;;10.57;4.23;;;;;;;14.93;56.04;102498.94;5055610;28;20033;-86
2023/05/19 08:40:17;;;;;;;7.33;3.97;;;;;;;15.10;57.11;102495.31;5054344;28;20561;-86
2023/05/19 08:42:46;;;;;;;7.37;3.30;;;;;;;15.44;55.76;102495.03;5054044;28;20359;-88
2023/05/19 08:45:12;;;;;;;7.20;3.95;;;;;;;15.69;55.49;102493.06;5066761;28;20508;-88
2023/05/19 08:47:38;;;;;;;12.83;4.90;;;;;;;15.67;53.20;102489.59;5042049;28;20048;-88
2023/05/19 08:50:09;;;;;;;8.70;4.20;;;;;;;15.74;50.32;102486.03;5037058;28;20033;-87
2023/05/19 08:53:24;;;;;;;10.32;4.25;;;;;;;15.74;52.73;102482.56;5035005;28;20466;-88
2023/05/19 08:56:00;;;;;;;8.43;3.80;;;;;;;16.04;47.62;102483.09;4957105;28;20487;-89
2023/05/19 08:58:26;;;;;;;8.43;3.25;;;;;;;16.06;47.83;102471.72;4972516;28;20117;-88
2023/05/19 09:00:52;;;;;;;4.53;2.85;;;;;;;16.18;50.65;102464.59;5018265;28;20091;-89
2023/05/19 09:03:19;;;;;;;8.50;3.50;;;;;;;16.39;48.75;102467.81;5054075;28;20025;-87
2023/05/19 09:05:45;;;;;;;9.10;3.42;;;;;;;16.51;47.65;102470.25;5053951;28;20116;-88
2023/05/19 09:08:10;;;;;;;8.20;3.20;;;;;;;16.73;51.17;102464.69;5054885;28;20108;-89
2023/05/19 09:10:36;;;;;;;8.10;3.20;;;;;;;16.89;49.87;102462.72;5055007;28;20333;-88
2023/05/19 09:13:01;;;;;;;11.07;3.30;;;;;;;16.80;45.44;102468.97;5054251;28;20024;-88
2023/05/19 09:15:30;;;;;;;7.80;3.17;;;;;;;16.70;47.07;102459.53;5054469;28;20139;-89
2023/05/19 09:18:07;;;;;;;6.32;2.90;;;;;;;16.79;45.17;102457.59;5062340;28;20048;-90
2023/05/19 09:20:36;;;;;;;7.43;2.90;;;;;;;17.03;46.27;102455.50;5068443;28;20028;-89
2023/05/19 09:23:02;;;;;;;6.07;2.50;;;;;;;17.31;43.87;102449.81;5054327;28;20025;-89
2023/05/19 09:25:27;;;;;;;5.78;2.78;;;;;;;17.49;46.40;102445.97;5053936;28;20025;-88
2023/05/19 09:27:54;;;;;;;6.73;2.53;;;;;;;17.30;43.28;102455.94;5054989;28;20488;-90
2023/05/19 09:30:20;;;;;;;8.55;2.72;;;;;;;17.06;41.97;102457.22;5054483;28;20060;-89
2023/05/19 09:32:45;;;;;;;6.18;2.50;;;;;;;16.77;44.22;102448.91;5054275;28;20074;-88
2023/05/19 09:35:12;;;;;;;6.57;2.57;;;;;;;16.48;43.68;102444.13;5054302;28;20029;-88
2023/05/19 09:37:40;;;;;;;7.38;2.90;;;;;;;16.34;43.36;102442.56;5054275;28;20036;-91
2023/05/19 09:40:12;;;;;;;6.88;3.17;;;;;;;16.26;44.78;102440.91;5053517;28;20044;-88
2023/05/19 09:42:38;;;;;;;7.10;2.70;;;;;;;16.24;45.66;102447.94;5054058;28;20432;-88
2023/05/19 09:45:05;;;;;;;6.97;3.20;;;;;;;16.27;43.96;102443.50;5061226;28;20120;-88
2023/05/19 09:47:35;;;;;;;6.90;2.70;;;;;;;16.51;43.77;102437.06;5046721;28;20048;-90
2023/05/19 09:50:01;;;;;;;7.63;2.60;;;;;;;16.67;42.68;102440.31;5073276;28;20036;-91
2023/05/19 09:52:27;;;;;;;8.55;2.83;;;;;;;16.81;42.09;102450.59;5074279;28;20024;-89
2023/05/19 09:54:53;;;;;;;7.47;2.50;;;;;;;16.92;42.96;102442.56;5073871;28;20085;-88
2023/05/19 09:57:23;;;;;;;;;;;;;;;17.15;41.77;102449.22;5066623;28;20032;-87
2023/05/19 09:59:49;;;;;;;6.38;2.58;;;;;;;17.22;42.64;102444.72;5072117;28;19917;-89
2023/05/19 10:02:17;;;;;;;4.17;2.30;;;;;;;17.50;43.31;102437.22;5072368;28;20016;-88
2023/05/19 10:04:43;;;;;;;5.63;2.33;;;;;;;17.60;40.16;102443.13;5073435;28;20029;-89
2023/05/19 10:07:10;;;;;;;4.20;1.98;;;;;;;17.81;43.51;102430.47;5073583;28;20082;-89
2023/05/19 10:09:36;;;;;;;7.63;2.50;;;;;;;17.98;38.57;102441.53;5073771;28;20028;-89
2023/05/19 10:12:02;;;;;;;;;;;;;;;17.81;38.70;102433.09;5074087;28;20032;-89
2023/05/19 10:14:28;;;;;;;6.18;2.38;;;;;;;17.55;38.63;102437.13;5073534;28;19912;-88
2023/05/19 10:16:57;;;;;;;5.53;2.30;;;;;;;17.51;40.55;102432.81;5073892;28;20025;-90
2023/05/19 10:19:26;;;;;;;7.75;2.67;;;;;;;17.25;38.74;102449.88;5066459;28;20048;-87
2023/05/19 10:21:51;;;;;;;7.95;2.95;;;;;;;17.28;40.48;102434.94;5073857;28;20099;-89
2023/05/19 10:24:17;;;;;;;7.47;2.57;;;;;;;17.51;42.47;102431.03;5074515;28;20643;-89
2023/05/19 10:26:47;;;;;;;5.63;2.50;;;;;;;17.84;41.95;102425.16;5074313;28;20274;-89
2023/05/19 10:29:17;;;;;;;7.57;2.95;;;;;;;17.88;39.45;102429.47;5076070;28;20416;-85
2023/05/19 10:31:46;;;;;;;7.32;3.13;;;;;;;17.69;40.50;102440.31;5074576;28;20036;-90
2023/05/19 10:34:27;;;;;;;8.35;3.00;;;;;;;17.24;40.59;102430.69;5074589;28;20419;-90
2023/05/19 10:37:12;;;;;;;5.90;2.58;;;;;;;17.58;42.75;102422.16;5074690;28;20029;-90
2023/05/19 10:39:42;;;;;;;7.88;2.80;;;;;;;17.80;41.83;102415.59;5074289;28;20024;-91
2023/05/19 10:42:36;;;;;;;7.13;2.70;;;;;;;17.86;40.04;102423.38;5073311;28;20082;-90
2023/05/19 10:45:21;;;;;;;6.72;2.80;;;;;;;18.20;40.37;102420.06;5067131;28;20051;-90
2023/05/19 10:47:46;;;;;;;5.70;2.40;;;;;;;18.50;43.37;102407.97;5074385;28;20510;-91
2023/05/19 10:50:11;;;;;;;7.53;2.90;;;;;;;18.78;38.52;102415.16;5072966;28;20047;-89
2023/05/19 10:52:38;;;;;;;7.43;2.70;;;;;;;18.37;38.89;102414.41;5087169;28;20016;-91
2023/05/19 10:55:07;;;;;;;;;;;;;;;18.14;39.46;102417.53;5095812;28;20401;-90
2023/05/19 10:57:32;;;;;;;6.40;2.85;;;;;;;18.29;40.83;102397.97;5094688;28;19916;-90
2023/05/19 11:00:09;;;;;;;3.50;2.20;;;;;;;18.57;41.14;102400.81;5094725;28;20027;-90
2023/05/19 11:02:42;;;;;;;8.02;2.70;;;;;;;18.70;36.30;102411.00;5095496;28;20035;-91
2023/05/19 11:05:13;;;;;;;7.85;3.03;;;;;;;18.63;36.58;102411.16;5095037;28;20357;-89
2023/05/19 11:07:43;;;;;;;5.13;2.20;;;;;;;18.88;38.63;102407.03;5095660;28;20400;-92
2023/05/19 11:10:11;;;;;;;3.90;1.95;;;;;;;19.19;37.84;102407.16;5087064;28;20031;-90
2023/05/19 11:12:43;;;;;;;3.95;2.00;;;;;;;19.57;38.09;102394.72;5074254;28;20029;-90
2023/05/19 11:15:11;;;;;;;4.38;2.13;;;;;;;19.62;38.34;102399.84;5072991;28;20484;-87
2023/05/19 11:17:44;;;;;;;1.77;1.50;;;;;;;19.84;39.12;102393.94;5074458;28;20111;-89
2023/05/19 11:20:21;;;;;;;7.68;2.50;;;;;;;19.72;37.35;102405.69;5074569;28;20487;-89
2023/05/19 11:23:14;;;;;;;6.28;2.53;;;;;;;19.41;35.04;102402.19;5070289;28;20032;-89
2023/05/19 11:25:45;;;;;;;5.88;2.30;;;;;;;19.33;35.02;102413.81;5036419;28;20384;-92
2023/05/19 11:28:12;;;;;;;5.57;2.70;;;;;;;18.62;36.11;102398.91;5077743;28;20032;-91